createdAt,value
2022-10-01T00:01:07.958Z,8.83
2022-10-01T00:03:35.858Z,5.10
2022-10-01T00:06:04.167Z,6.63
2022-10-01T00:08:32.628Z,4.90
2022-10-01T00:11:02.342Z,4.70
2022-10-01T00:13:32.199Z,5.00
2022-10-01T00:16:00.415Z,5.20
2022-10-01T00:18:27.311Z,4.73
2022-10-01T00:20:53.903Z,4.93
2022-10-01T00:23:20.398Z,5.73
2022-10-01T00:25:47.157Z,6.73
2022-10-01T00:28:13.664Z,5.60
2022-10-01T00:30:46.825Z,4.77
2022-10-01T00:33:13.412Z,4.50
2022-10-01T00:35:39.846Z,4.27
2022-10-01T00:38:06.301Z,5.10
2022-10-01T00:40:33.464Z,5.03
2022-10-01T00:43:00.051Z,5.30
2022-10-01T00:45:27.171Z,3.60
2022-10-01T00:47:58.556Z,3.70
2022-10-01T00:50:34.929Z,4.43
2022-10-01T00:53:04.676Z,4.90
2022-10-01T00:55:36.644Z,5.70
2022-10-01T00:58:04.534Z,7.33
2022-10-01T01:00:32.061Z,3.30
2022-10-01T01:02:58.524Z,4.67
2022-10-01T01:05:25.049Z,3.90
2022-10-01T01:07:53.264Z,4.63
2022-10-01T01:10:30.005Z,4.47
2022-10-01T01:13:11.609Z,3.27
2022-10-01T01:15:47.375Z,6.07
2022-10-01T01:18:22.594Z,3.03
2022-10-01T01:21:13.492Z,3.07
2022-10-01T01:24:01.734Z,3.03
2022-10-01T01:26:43.743Z,3.10
2022-10-01T01:29:18.545Z,3.20
2022-10-01T01:31:48.999Z,7.03
2022-10-01T01:34:23.224Z,3.73
2022-10-01T01:37:00.121Z,3.40
2022-10-01T01:39:29.200Z,4.27
2022-10-01T01:41:59.781Z,3.20
2022-10-01T01:44:29.906Z,3.70
2022-10-01T01:46:57.522Z,6.53
2022-10-01T01:49:24.453Z,4.53
2022-10-01T01:51:56.366Z,3.77
2022-10-01T01:54:23.005Z,4.60
2022-10-01T01:56:50.319Z,4.57
2022-10-01T01:59:19.562Z,5.37
2022-10-01T02:01:46.548Z,3.80
2022-10-01T02:04:19.064Z,3.27
2022-10-01T02:06:54.635Z,4.30
2022-10-01T02:09:31.191Z,3.13
2022-10-01T02:12:07.606Z,3.20
2022-10-01T02:14:36.917Z,3.60
2022-10-01T02:17:13.198Z,3.00
2022-10-01T02:19:49.707Z,3.87
2022-10-01T02:22:22.972Z,4.07
2022-10-01T02:24:56.983Z,3.90
2022-10-01T02:27:40.212Z,3.27
2022-10-01T02:30:08.623Z,3.20
2022-10-01T02:32:38.061Z,3.13
2022-10-01T02:35:06.440Z,4.67
2022-10-01T02:37:34.197Z,3.63
2022-10-01T02:40:02.795Z,4.03
2022-10-01T02:42:30.913Z,4.10
2022-10-01T02:45:01.253Z,6.13
2022-10-01T02:47:34.137Z,4.13
2022-10-01T02:50:04.881Z,5.33
2022-10-01T02:52:41.821Z,3.37
2022-10-01T02:55:37.830Z,3.43
2022-10-01T02:58:04.954Z,3.43
2022-10-01T03:00:31.492Z,3.67
2022-10-01T03:02:58.001Z,3.97
2022-10-01T03:05:24.525Z,3.30
2022-10-01T03:07:51.029Z,3.30
2022-10-01T03:10:17.697Z,3.57
2022-10-01T03:12:46.573Z,4.43
2022-10-01T03:15:14.614Z,5.40
2022-10-01T03:17:41.193Z,5.63
2022-10-01T03:20:08.593Z,3.57
2022-10-01T03:22:35.319Z,5.93
2022-10-01T03:25:01.812Z,4.43
2022-10-01T03:27:28.268Z,4.80
2022-10-01T03:29:54.685Z,3.70
2022-10-01T03:32:21.141Z,4.17
2022-10-01T03:34:47.903Z,3.67
2022-10-01T03:37:14.333Z,4.97
2022-10-01T03:39:40.826Z,3.50
2022-10-01T03:42:07.315Z,4.80
2022-10-01T03:44:34.122Z,4.67
2022-10-01T03:47:00.611Z,4.17
2022-10-01T03:49:27.919Z,3.77
2022-10-01T03:51:54.419Z,5.93
2022-10-01T03:54:21.702Z,4.27
2022-10-01T03:56:48.885Z,5.50
2022-10-01T03:59:15.363Z,5.20
2022-10-01T04:01:41.985Z,4.67
2022-10-01T04:04:08.487Z,4.00
2022-10-01T04:06:34.990Z,4.80
2022-10-01T04:09:01.690Z,3.30
2022-10-01T04:11:28.256Z,8.77
2022-10-01T04:13:55.312Z,4.00
2022-10-01T04:16:21.828Z,3.57
2022-10-01T04:18:48.364Z,4.20
2022-10-01T04:21:15.593Z,3.20
2022-10-01T04:23:42.349Z,3.67
2022-10-01T04:26:09.221Z,4.87
2022-10-01T04:28:35.821Z,5.27
2022-10-01T04:31:20.798Z,5.33
2022-10-01T04:33:47.380Z,4.13
2022-10-01T04:36:13.990Z,5.30
2022-10-01T04:38:40.516Z,3.57
2022-10-01T04:41:07.158Z,4.00
2022-10-01T04:43:33.652Z,4.20
2022-10-01T04:46:00.126Z,4.57
2022-10-01T04:48:26.611Z,6.20
2022-10-01T04:50:53.260Z,6.37
2022-10-01T04:53:19.748Z,4.20
2022-10-01T04:55:46.699Z,5.00
2022-10-01T04:58:13.212Z,4.97
2022-10-01T05:00:39.695Z,7.10
2022-10-01T05:03:06.152Z,5.20
2022-10-01T05:05:34.898Z,5.13
2022-10-01T05:08:01.997Z,4.90
2022-10-01T05:10:29.048Z,5.37
2022-10-01T05:12:55.517Z,6.97
2022-10-01T05:15:22.042Z,5.57
2022-10-01T05:17:48.515Z,6.53
2022-10-01T05:20:21.048Z,6.87
2022-10-01T05:22:49.413Z,5.90
2022-10-01T05:25:17.020Z,6.80
2022-10-01T05:27:43.619Z,5.90
2022-10-01T05:30:11.519Z,7.03
2022-10-01T05:32:38.254Z,9.70
2022-10-01T05:35:07.072Z,6.53
2022-10-01T05:37:34.203Z,5.97
2022-10-01T05:40:01.003Z,8.37
2022-10-01T05:42:27.477Z,6.73
2022-10-01T05:44:53.950Z,7.43
2022-10-01T05:47:21.564Z,5.83
2022-10-01T05:49:48.036Z,6.73
2022-10-01T05:52:15.687Z,8.10
2022-10-01T05:54:42.268Z,5.60
2022-10-01T05:57:09.423Z,5.83
2022-10-01T05:59:36.053Z,5.23
2022-10-01T06:02:03.965Z,6.83
2022-10-01T06:04:30.596Z,6.00
2022-10-01T06:06:57.098Z,8.83
2022-10-01T06:09:23.669Z,5.60
2022-10-01T06:11:50.154Z,5.33
2022-10-01T06:14:17.377Z,7.83
2022-10-01T06:16:43.949Z,6.37
2022-10-01T06:19:10.614Z,5.70
2022-10-01T06:21:37.493Z,7.63
2022-10-01T06:24:04.388Z,6.07
2022-10-01T06:26:31.235Z,5.47
2022-10-01T06:28:57.784Z,7.73
2022-10-01T06:31:25.136Z,6.00
2022-10-01T06:33:51.816Z,5.17
2022-10-01T06:36:18.353Z,5.70
2022-10-01T06:38:48.260Z,5.10
2022-10-01T06:41:14.918Z,5.40
2022-10-01T06:43:41.390Z,5.37
2022-10-01T06:46:07.960Z,5.27
2022-10-01T06:48:36.428Z,5.83
2022-10-01T06:51:03.214Z,6.17
2022-10-01T06:53:29.752Z,5.43
2022-10-01T06:55:56.473Z,5.30
2022-10-01T06:58:26.300Z,4.97
2022-10-01T07:00:58.631Z,5.27
2022-10-01T07:03:25.802Z,5.43
2022-10-01T07:05:52.355Z,5.77
2022-10-01T07:08:19.104Z,6.23
2022-10-01T07:10:45.780Z,5.10
2022-10-01T07:13:17.137Z,5.87
2022-10-01T07:15:44.596Z,5.23
2022-10-01T07:18:11.484Z,6.43
2022-10-01T07:20:41.561Z,5.07
2022-10-01T07:23:11.985Z,6.27
2022-10-01T07:25:39.939Z,4.73
2022-10-01T07:28:08.194Z,5.60
2022-10-01T07:30:35.016Z,5.80
2022-10-01T07:33:01.499Z,6.00
2022-10-01T07:35:28.525Z,5.07
2022-10-01T07:37:55.429Z,4.60
2022-10-01T07:40:22.147Z,5.20
2022-10-01T07:42:55.822Z,6.40
2022-10-01T07:45:22.979Z,4.10
2022-10-01T07:47:56.720Z,4.63
2022-10-01T07:50:23.739Z,4.40
2022-10-01T07:52:54.282Z,4.90
2022-10-01T07:55:21.508Z,4.83
2022-10-01T07:57:55.261Z,4.63
2022-10-01T08:00:22.902Z,6.43
2022-10-01T08:02:50.856Z,5.53
2022-10-01T08:05:18.989Z,5.07
2022-10-01T08:07:46.696Z,4.87
2022-10-01T08:10:14.174Z,5.07
2022-10-01T08:12:42.777Z,5.30
2022-10-01T08:15:15.272Z,4.80
2022-10-01T08:17:42.551Z,7.20
2022-10-01T08:20:10.814Z,5.00
2022-10-01T08:22:41.812Z,4.60
2022-10-01T08:25:09.281Z,4.20
2022-10-01T08:27:36.033Z,4.60
2022-10-01T08:30:02.995Z,5.10
2022-10-01T08:32:31.231Z,4.77
2022-10-01T08:35:00.247Z,4.60
2022-10-01T08:37:28.453Z,5.30
2022-10-01T08:39:55.957Z,5.93
2022-10-01T08:42:28.518Z,4.33
2022-10-01T08:44:54.987Z,5.47
2022-10-01T08:47:31.793Z,4.67
2022-10-01T08:50:02.593Z,4.03
2022-10-01T08:52:37.293Z,3.70
2022-10-01T08:55:18.540Z,4.20
2022-10-01T08:58:00.961Z,4.10
2022-10-01T09:00:40.919Z,3.93
2022-10-01T09:03:12.000Z,3.80
2022-10-01T09:06:04.078Z,4.10
2022-10-01T09:08:43.796Z,4.47
2022-10-01T09:11:24.698Z,4.43
2022-10-01T09:13:59.777Z,4.27
2022-10-01T09:16:46.202Z,7.87
2022-10-01T09:19:18.663Z,4.07
2022-10-01T09:21:57.398Z,4.10
2022-10-01T09:24:30.278Z,4.40
2022-10-01T09:26:56.747Z,3.30
2022-10-01T09:29:29.094Z,4.40
2022-10-01T09:31:56.749Z,3.13
2022-10-01T09:34:36.603Z,3.93
2022-10-01T09:37:14.786Z,3.63
2022-10-01T09:40:04.891Z,2.80
2022-10-01T09:42:32.228Z,3.97
2022-10-01T09:45:00.002Z,2.90
2022-10-01T09:47:26.592Z,3.00
2022-10-01T09:49:54.662Z,3.07
2022-10-01T09:52:38.884Z,3.63
2022-10-01T09:55:16.107Z,4.07
2022-10-01T09:58:14.816Z,3.20
2022-10-01T10:00:42.182Z,3.03
2022-10-01T10:03:08.966Z,5.13
2022-10-01T10:05:48.133Z,2.87
2022-10-01T10:08:24.233Z,3.53
2022-10-01T10:10:52.475Z,3.67
2022-10-01T10:13:26.584Z,3.73
2022-10-01T10:15:59.168Z,3.97
2022-10-01T10:18:34.585Z,4.93
2022-10-01T10:21:19.434Z,5.07
2022-10-01T10:24:27.312Z,5.83
2022-10-01T10:26:56.800Z,5.17
2022-10-01T10:29:31.738Z,5.10
2022-10-01T10:31:59.561Z,5.70
2022-10-01T10:34:32.290Z,5.30
2022-10-01T10:37:01.696Z,6.47
2022-10-01T10:39:31.762Z,6.00
2022-10-01T10:41:59.639Z,5.60
2022-10-01T10:44:35.130Z,5.63
2022-10-01T10:47:03.820Z,7.60
2022-10-01T10:49:38.073Z,7.13
2022-10-01T10:52:19.782Z,7.63
2022-10-01T10:54:48.684Z,6.17
2022-10-01T10:57:28.563Z,5.93
2022-10-01T11:00:16.970Z,6.57
2022-10-01T11:03:05.319Z,7.40
2022-10-01T11:05:34.456Z,5.17
2022-10-01T11:08:04.116Z,6.53
2022-10-01T11:10:33.490Z,9.40
2022-10-01T11:13:33.525Z,8.70
2022-10-01T11:16:29.528Z,8.10
2022-10-01T11:19:12.845Z,7.93
2022-10-01T11:21:58.064Z,6.63
2022-10-01T11:25:01.085Z,4.73
2022-10-01T11:27:36.276Z,8.53
2022-10-01T11:30:06.251Z,10.90
2022-10-01T11:33:03.625Z,8.67
2022-10-01T11:35:42.228Z,8.53
2022-10-01T11:38:30.735Z,8.57
2022-10-01T11:41:08.863Z,5.83
2022-10-01T11:43:51.544Z,9.20
2022-10-01T11:46:50.515Z,7.80
2022-10-01T11:49:26.816Z,8.53
2022-10-01T11:52:06.519Z,8.30
2022-10-01T11:54:34.983Z,10.67
2022-10-01T11:57:39.436Z,10.27
2022-10-01T12:00:08.624Z,10.20
2022-10-01T12:02:43.484Z,8.47
2022-10-01T12:05:31.388Z,13.33
2022-10-01T12:07:57.880Z,10.80
2022-10-01T12:11:02.138Z,11.27
2022-10-01T12:13:32.851Z,12.97
2022-10-01T12:16:19.982Z,13.50
2022-10-01T12:19:00.114Z,10.83
2022-10-01T12:21:35.132Z,10.40
2022-10-01T12:24:16.857Z,9.63
2022-10-01T12:27:19.855Z,6.67
2022-10-01T12:29:57.219Z,11.37
2022-10-01T12:33:11.833Z,8.77
2022-10-01T12:35:56.043Z,8.93
2022-10-01T12:38:43.853Z,7.97
2022-10-01T12:41:31.750Z,10.10
2022-10-01T12:44:20.098Z,11.83
2022-10-01T12:47:05.848Z,8.83
2022-10-01T12:49:35.305Z,9.27
2022-10-01T12:52:23.282Z,9.23
2022-10-01T12:55:26.601Z,12.57
2022-10-01T12:58:15.370Z,9.53
2022-10-01T13:00:51.778Z,9.70
2022-10-01T13:03:58.777Z,6.90
2022-10-01T13:06:39.865Z,8.47
2022-10-01T13:09:09.474Z,9.27
2022-10-01T13:12:05.302Z,12.40
2022-10-01T13:14:33.288Z,10.03
2022-10-01T13:17:09.724Z,10.07
2022-10-01T13:19:52.316Z,9.93
2022-10-01T13:22:45.837Z,9.90
2022-10-01T13:25:24.555Z,11.67
2022-10-01T13:27:54.749Z,9.03
2022-10-01T13:30:24.110Z,11.17
2022-10-01T13:32:58.376Z,12.40
2022-10-01T13:35:34.414Z,10.63
2022-10-01T13:38:13.977Z,8.37
2022-10-01T13:40:40.836Z,6.73
2022-10-01T13:43:22.671Z,6.70
2022-10-01T13:45:51.312Z,5.80
2022-10-01T13:48:20.399Z,7.70
2022-10-01T13:51:05.042Z,8.87
2022-10-01T13:53:35.404Z,5.40
2022-10-01T13:56:02.834Z,6.03
2022-10-01T13:58:29.538Z,6.63
2022-10-01T14:00:58.194Z,6.33
2022-10-01T14:03:46.576Z,8.10
2022-10-01T14:06:26.481Z,6.57
2022-10-01T14:09:15.882Z,7.57
2022-10-01T14:12:13.536Z,7.37
2022-10-01T14:15:01.275Z,4.77
2022-10-01T14:17:32.977Z,7.03
2022-10-01T14:20:00.892Z,7.83
2022-10-01T14:22:51.651Z,4.97
2022-10-01T14:25:53.336Z,5.13
2022-10-01T14:28:20.164Z,7.60
2022-10-01T14:30:57.353Z,5.27
2022-10-01T14:33:48.466Z,6.73
2022-10-01T14:36:29.602Z,7.37
2022-10-01T14:39:15.573Z,7.30
2022-10-01T14:41:42.670Z,4.80
2022-10-01T14:44:39.166Z,8.10
2022-10-01T14:47:35.980Z,7.80
2022-10-01T14:50:14.875Z,6.93
2022-10-01T14:52:44.926Z,6.63
2022-10-01T14:55:16.181Z,6.17
2022-10-01T14:57:44.545Z,6.50
2022-10-01T15:00:20.302Z,5.43
2022-10-01T15:03:06.384Z,4.70
2022-10-01T15:05:35.200Z,6.10
2022-10-01T15:08:24.986Z,4.60
2022-10-01T15:10:53.715Z,7.17
2022-10-01T15:13:29.560Z,9.73
2022-10-01T15:15:56.315Z,7.93
2022-10-01T15:18:23.684Z,7.40
2022-10-01T15:20:59.539Z,8.13
2022-10-01T15:23:28.820Z,7.00
2022-10-01T15:25:57.015Z,13.77
2022-10-01T15:28:31.664Z,15.57
2022-10-01T15:31:06.749Z,14.13
2022-10-01T15:33:37.248Z,7.60
2022-10-01T15:36:17.102Z,9.87
2022-10-01T15:38:45.354Z,5.07
2022-10-01T15:41:31.422Z,5.60
2022-10-01T15:44:01.526Z,5.53
2022-10-01T15:46:31.201Z,5.40
2022-10-01T15:49:16.496Z,6.67
2022-10-01T15:52:22.575Z,5.80
2022-10-01T15:54:57.834Z,5.43
2022-10-01T15:57:25.724Z,4.93
2022-10-01T15:59:54.401Z,3.67
2022-10-01T16:02:29.703Z,5.33
2022-10-01T16:05:04.055Z,5.23
2022-10-01T16:07:33.483Z,5.90
2022-10-01T16:10:14.134Z,6.70
2022-10-01T16:12:40.662Z,5.67
2022-10-01T16:15:24.622Z,6.63
2022-10-01T16:18:04.975Z,9.00
2022-10-01T16:20:34.703Z,7.93
2022-10-01T16:23:35.373Z,7.27
2022-10-01T16:26:04.155Z,5.43
2022-10-01T16:28:35.002Z,4.10
2022-10-01T16:31:04.571Z,6.47
2022-10-01T16:33:31.208Z,10.07
2022-10-01T16:36:11.008Z,8.43
2022-10-01T16:38:37.565Z,5.13
2022-10-01T16:41:05.447Z,5.87
2022-10-01T16:43:31.975Z,7.40
2022-10-01T16:45:59.320Z,6.87
2022-10-01T16:48:26.012Z,4.33
2022-10-01T16:50:58.992Z,5.30
2022-10-01T16:53:26.060Z,7.80
2022-10-01T16:55:52.789Z,6.20
2022-10-01T16:58:20.322Z,8.37
2022-10-01T17:00:46.840Z,8.43
2022-10-01T17:03:18.873Z,5.77
2022-10-01T17:05:46.125Z,7.07
2022-10-01T17:08:14.661Z,8.10
2022-10-01T17:10:53.049Z,7.53
2022-10-01T17:13:34.996Z,7.50
2022-10-01T17:16:02.270Z,7.97
2022-10-01T17:18:28.893Z,6.87
2022-10-01T17:20:56.243Z,7.47
2022-10-01T17:23:22.821Z,5.77
2022-10-01T17:25:49.610Z,7.37
2022-10-01T17:28:20.100Z,10.00
2022-10-01T17:30:48.088Z,6.37
2022-10-01T17:33:16.463Z,7.67
2022-10-01T17:35:45.334Z,7.60
2022-10-01T17:38:16.854Z,8.57
2022-10-01T17:40:45.134Z,9.57
2022-10-01T17:43:13.566Z,9.10
2022-10-01T17:45:42.966Z,8.37
2022-10-01T17:48:09.999Z,6.87
2022-10-01T17:50:43.702Z,7.40
2022-10-01T17:53:11.637Z,9.27
2022-10-01T17:55:42.570Z,6.63
2022-10-01T17:58:09.992Z,5.97
2022-10-01T18:00:36.695Z,6.83
2022-10-01T18:03:06.179Z,8.97
2022-10-01T18:05:32.692Z,6.80
2022-10-01T18:07:59.132Z,7.80
2022-10-01T18:10:25.597Z,6.53
2022-10-01T18:12:53.075Z,9.60
2022-10-01T18:15:20.924Z,11.77
2022-10-01T18:17:51.995Z,7.97
2022-10-01T18:20:20.601Z,8.47
2022-10-01T18:22:47.182Z,8.50
2022-10-01T18:25:16.085Z,10.87
2022-10-01T18:27:43.564Z,11.10
2022-10-01T18:30:10.599Z,9.60
2022-10-01T18:32:41.317Z,8.07
2022-10-01T18:35:30.480Z,9.07
2022-10-01T18:38:01.536Z,15.63
2022-10-01T18:40:30.484Z,11.13
2022-10-01T18:43:06.618Z,11.40
2022-10-01T18:45:54.913Z,14.83
2022-10-01T18:48:47.584Z,11.90
2022-10-01T18:51:23.332Z,10.10
2022-10-01T18:54:17.289Z,10.67
2022-10-01T18:56:54.733Z,13.30
2022-10-01T18:59:37.888Z,9.70
2022-10-01T19:02:32.455Z,13.50
2022-10-01T19:05:33.119Z,10.37
2022-10-01T19:08:24.672Z,10.53
2022-10-01T19:11:02.161Z,8.20
2022-10-01T19:14:19.362Z,9.07
2022-10-01T19:16:52.999Z,10.53
2022-10-01T19:20:05.756Z,12.47
2022-10-01T19:22:50.221Z,10.07
2022-10-01T19:25:16.892Z,12.27
2022-10-01T19:27:54.640Z,14.73
2022-10-01T19:30:21.308Z,15.73
2022-10-01T19:32:59.445Z,15.60
2022-10-01T19:35:40.171Z,15.13
2022-10-01T19:38:15.031Z,12.33
2022-10-01T19:41:24.127Z,14.03
2022-10-01T19:44:03.869Z,11.83
2022-10-01T19:46:40.332Z,13.50
2022-10-01T19:49:07.857Z,14.37
2022-10-01T19:51:37.470Z,14.10
2022-10-01T19:54:05.891Z,17.03
2022-10-01T19:56:34.073Z,11.23
2022-10-01T19:59:06.781Z,11.57
2022-10-01T20:01:46.601Z,15.10
2022-10-01T20:04:21.220Z,10.13
2022-10-01T20:06:47.923Z,10.90
2022-10-01T20:09:25.985Z,15.73
2022-10-01T20:12:04.683Z,13.20
2022-10-01T20:15:08.290Z,15.67
2022-10-01T20:17:40.683Z,18.70
2022-10-01T20:20:16.196Z,14.03
2022-10-01T20:23:14.240Z,9.93
2022-10-01T20:26:03.120Z,14.90
2022-10-01T20:28:36.259Z,12.20
2022-10-01T20:31:09.300Z,11.00
2022-10-01T20:33:45.941Z,12.97
2022-10-01T20:36:18.556Z,7.93
2022-10-01T20:38:49.968Z,8.37
2022-10-01T20:41:18.282Z,10.30
2022-10-01T20:43:56.061Z,11.60
2022-10-01T20:46:43.350Z,9.27
2022-10-01T20:49:27.957Z,9.30
2022-10-01T20:51:58.161Z,11.03
2022-10-01T20:54:31.428Z,8.40
2022-10-01T20:57:10.257Z,11.90
2022-10-01T20:59:40.369Z,12.83
2022-10-01T21:02:35.210Z,14.13
2022-10-01T21:05:06.920Z,13.87
2022-10-01T21:07:47.884Z,9.90
2022-10-01T21:10:22.148Z,11.47
2022-10-01T21:12:57.611Z,11.67
2022-10-01T21:15:27.437Z,7.93
2022-10-01T21:18:11.994Z,6.87
2022-10-01T21:21:07.875Z,6.13
2022-10-01T21:24:07.023Z,10.00
2022-10-01T21:26:46.005Z,10.73
2022-10-01T21:29:24.287Z,12.30
2022-10-01T21:32:37.027Z,8.90
2022-10-01T21:35:07.452Z,10.73
2022-10-01T21:37:41.193Z,11.00
2022-10-01T21:40:24.995Z,8.67
2022-10-01T21:43:01.376Z,10.20
2022-10-01T21:45:53.383Z,10.73
2022-10-01T21:48:35.946Z,9.73
2022-10-01T21:51:06.483Z,9.67
2022-10-01T21:53:48.347Z,7.30
2022-10-01T21:56:14.757Z,8.80
2022-10-01T21:58:50.723Z,12.00
2022-10-01T22:01:30.143Z,13.63
2022-10-01T22:04:03.916Z,10.70
2022-10-01T22:06:46.349Z,8.73
2022-10-01T22:09:18.137Z,13.83
2022-10-01T22:11:50.892Z,8.20
2022-10-01T22:14:19.974Z,10.90
2022-10-01T22:16:54.426Z,10.73
2022-10-01T22:19:31.702Z,10.33
2022-10-01T22:22:05.103Z,10.07
2022-10-01T22:24:53.070Z,7.43
2022-10-01T22:27:32.351Z,6.57
2022-10-01T22:30:06.722Z,11.90
2022-10-01T22:32:44.037Z,8.50
2022-10-01T22:35:27.510Z,9.77
2022-10-01T22:38:00.122Z,11.60
2022-10-01T22:40:34.685Z,9.13
2022-10-01T22:43:05.549Z,9.03
2022-10-01T22:45:48.764Z,9.93
2022-10-01T22:48:44.450Z,12.43
2022-10-01T22:51:42.410Z,10.60
2022-10-01T22:54:31.222Z,9.70
2022-10-01T22:57:18.380Z,10.47
2022-10-01T22:59:54.914Z,8.67
2022-10-01T23:02:41.052Z,12.50
2022-10-01T23:05:31.905Z,13.33
2022-10-01T23:08:06.360Z,7.97
2022-10-01T23:10:52.811Z,12.00
2022-10-01T23:13:47.840Z,5.33
2022-10-01T23:16:33.388Z,11.20
2022-10-01T23:19:28.063Z,8.87
2022-10-01T23:22:14.773Z,9.57
2022-10-01T23:24:54.390Z,8.00
2022-10-01T23:27:20.848Z,7.40
2022-10-01T23:30:09.077Z,7.37
2022-10-01T23:33:04.859Z,6.40
2022-10-01T23:36:00.762Z,10.23
2022-10-01T23:38:57.968Z,7.50
2022-10-01T23:42:03.416Z,7.50
2022-10-01T23:44:49.911Z,6.70
2022-10-01T23:47:20.745Z,10.40
2022-10-01T23:49:54.096Z,5.00
2022-10-01T23:52:30.738Z,9.80
2022-10-01T23:55:25.706Z,8.83
2022-10-01T23:57:54.070Z,7.00
